sensor_id;sensor_type;location;lat;lon;timestamp;P1;durP1;ratioP1;P2;durP2;ratioP2
4244;SDS011;2136;48.502;9.194;2024-01-15T00:01:28;22.48;;;9.95;;
4244;SDS011;2136;48.502;9.194;2024-01-15T00:03:55;23.73;;;11.68;;
4244;SDS011;2136;48.502;9.194;2024-01-15T00:06:21;28.40;;;12.13;;
4244;SDS011;2136;48.502;9.194;2024-01-15T00:08:48;27.90;;;11.32;;
4244;SDS011;2136;48.502;9.194;2024-01-15T00:11:15;18.48;;;9.95;;
4244;SDS011;2136;48.502;9.194;2024-01-15T00:13:43;24.50;;;10.65;;
4244;SDS011;2136;48.502;9.194;2024-01-15T00:16:10;21.85;;;11.30;;
4244;SDS011;2136;48.502;9.194;2024-01-15T00:18:37;21.33;;;10.77;;
4244;SDS011;2136;48.502;9.194;2024-01-15T00:21:04;25.52;;;11.63;;
4244;SDS011;2136;48.502;9.194;2024-01-15T00:23:30;21.27;;;10.05;;
4244;SDS011;2136;48.502;9.194;2024-01-15T00:25:57;25.38;;;11.07;;
4244;SDS011;2136;48.502;9.194;2024-01-15T00:28:24;27.02;;;12.38;;
4244;SDS011;2136;48.502;9.194;2024-01-15T00:30:52;23.80;;;11.48;;
4244;SDS011;2136;48.502;9.194;2024-01-15T00:33:19;25.63;;;11.52;;
4244;SDS011;2136;48.502;9.194;2024-01-15T00:35:46;24.85;;;11.52;;
4244;SDS011;2136;48.502;9.194;2024-01-15T00:38:13;25.85;;;12.00;;
4244;SDS011;2136;48.502;9.194;2024-01-15T00:40:39;23.55;;;10.75;;
4244;SDS011;2136;48.502;9.194;2024-01-15T00:43:06;24.35;;;12.18;;
4244;SDS011;2136;48.502;9.194;2024-01-15T00:45:33;22.98;;;11.02;;
4244;SDS011;2136;48.502;9.194;2024-01-15T00:48:01;25.25;;;11.77;;
4244;SDS011;2136;48.502;9.194;2024-01-15T00:50:29;24.88;;;10.63;;
4244;SDS011;2136;48.502;9.194;2024-01-15T00:52:56;21.95;;;10.45;;
4244;SDS011;2136;48.502;9.194;2024-01-15T00:55:22;28.20;;;10.55;;
4244;SDS011;2136;48.502;9.194;2024-01-15T00:57:49;28.48;;;11.70;;
4244;SDS011;2136;48.502;9.194;2024-01-15T01:00:16;23.85;;;10.63;;
4244;SDS011;2136;48.502;9.194;2024-01-15T01:02:43;26.13;;;10.98;;
4244;SDS011;2136;48.502;9.194;2024-01-15T01:05:11;18.88;;;9.90;;
4244;SDS011;2136;48.502;9.194;2024-01-15T01:07:38;24.50;;;11.70;;
4244;SDS011;2136;48.502;9.194;2024-01-15T01:10:05;23.20;;;10.52;;
4244;SDS011;2136;48.502;9.194;2024-01-15T01:12:33;21.58;;;9.50;;
4244;SDS011;2136;48.502;9.194;2024-01-15T01:14:59;25.02;;;10.68;;
4244;SDS011;2136;48.502;9.194;2024-01-15T01:17:26;23.63;;;10.40;;
4244;SDS011;2136;48.502;9.194;2024-01-15T01:19:54;21.45;;;9.93;;
4244;SDS011;2136;48.502;9.194;2024-01-15T01:22:22;30.50;;;11.60;;
4244;SDS011;2136;48.502;9.194;2024-01-15T01:24:48;24.60;;;11.27;;
4244;SDS011;2136;48.502;9.194;2024-01-15T01:27:15;27.13;;;11.85;;
4244;SDS011;2136;48.502;9.194;2024-01-15T01:29:42;25.55;;;11.20;;
4244;SDS011;2136;48.502;9.194;2024-01-15T01:32:09;22.00;;;9.75;;
4244;SDS011;2136;48.502;9.194;2024-01-15T01:34:39;26.52;;;10.80;;
4244;SDS011;2136;48.502;9.194;2024-01-15T01:37:07;27.92;;;10.93;;
4244;SDS011;2136;48.502;9.194;2024-01-15T01:39:36;21.45;;;10.25;;
4244;SDS011;2136;48.502;9.194;2024-01-15T01:42:03;24.23;;;10.85;;
4244;SDS011;2136;48.502;9.194;2024-01-15T01:44:30;22.52;;;9.35;;
4244;SDS011;2136;48.502;9.194;2024-01-15T01:46:57;21.67;;;10.00;;
4244;SDS011;2136;48.502;9.194;2024-01-15T01:49:25;24.75;;;10.38;;
4244;SDS011;2136;48.502;9.194;2024-01-15T01:51:52;24.73;;;10.25;;
4244;SDS011;2136;48.502;9.194;2024-01-15T01:54:19;29.10;;;10.20;;
4244;SDS011;2136;48.502;9.194;2024-01-15T01:56:48;19.63;;;8.98;;
4244;SDS011;2136;48.502;9.194;2024-01-15T01:59:16;21.48;;;9.60;;
4244;SDS011;2136;48.502;9.194;2024-01-15T02:01:43;21.83;;;10.05;;
4244;SDS011;2136;48.502;9.194;2024-01-15T02:04:11;18.98;;;8.48;;
4244;SDS011;2136;48.502;9.194;2024-01-15T02:06:38;20.08;;;8.85;;
4244;SDS011;2136;48.502;9.194;2024-01-15T02:09:05;23.25;;;8.27;;
4244;SDS011;2136;48.502;9.194;2024-01-15T02:11:33;19.05;;;8.82;;
4244;SDS011;2136;48.502;9.194;2024-01-15T02:14:02;20.67;;;10.50;;
4244;SDS011;2136;48.502;9.194;2024-01-15T02:16:29;19.88;;;8.77;;
4244;SDS011;2136;48.502;9.194;2024-01-15T02:18:56;24.60;;;9.60;;
4244;SDS011;2136;48.502;9.194;2024-01-15T02:21:22;19.25;;;9.60;;
4244;SDS011;2136;48.502;9.194;2024-01-15T02:23:52;20.27;;;9.02;;
4244;SDS011;2136;48.502;9.194;2024-01-15T02:26:19;27.67;;;10.35;;
4244;SDS011;2136;48.502;9.194;2024-01-15T02:28:46;20.83;;;9.90;;
4244;SDS011;2136;48.502;9.194;2024-01-15T02:31:13;18.70;;;8.67;;
4244;SDS011;2136;48.502;9.194;2024-01-15T02:33:40;27.65;;;11.18;;
4244;SDS011;2136;48.502;9.194;2024-01-15T02:36:08;20.27;;;8.63;;
4244;SDS011;2136;48.502;9.194;2024-01-15T02:38:35;23.00;;;9.55;;
4244;SDS011;2136;48.502;9.194;2024-01-15T02:41:03;22.90;;;9.65;;
4244;SDS011;2136;48.502;9.194;2024-01-15T02:43:30;18.23;;;8.50;;
4244;SDS011;2136;48.502;9.194;2024-01-15T02:45:57;24.20;;;9.68;;
4244;SDS011;2136;48.502;9.194;2024-01-15T02:48:24;21.92;;;8.60;;
4244;SDS011;2136;48.502;9.194;2024-01-15T02:50:51;22.40;;;9.88;;
4244;SDS011;2136;48.502;9.194;2024-01-15T02:53:17;17.15;;;8.90;;
4244;SDS011;2136;48.502;9.194;2024-01-15T02:55:44;24.23;;;10.10;;
4244;SDS011;2136;48.502;9.194;2024-01-15T02:58:14;24.85;;;10.65;;
4244;SDS011;2136;48.502;9.194;2024-01-15T03:00:41;19.10;;;9.02;;
4244;SDS011;2136;48.502;9.194;2024-01-15T03:03:08;21.27;;;9.30;;
4244;SDS011;2136;48.502;9.194;2024-01-15T03:05:35;22.10;;;8.70;;
4244;SDS011;2136;48.502;9.194;2024-01-15T03:08:02;23.55;;;8.98;;
4244;SDS011;2136;48.502;9.194;2024-01-15T03:10:29;18.77;;;9.15;;
4244;SDS011;2136;48.502;9.194;2024-01-15T03:12:57;18.00;;;8.20;;
4244;SDS011;2136;48.502;9.194;2024-01-15T03:15:25;20.20;;;8.65;;
4244;SDS011;2136;48.502;9.194;2024-01-15T03:17:52;18.75;;;8.63;;
4244;SDS011;2136;48.502;9.194;2024-01-15T03:20:18;17.90;;;7.70;;
4244;SDS011;2136;48.502;9.194;2024-01-15T03:22:45;21.48;;;9.07;;
4244;SDS011;2136;48.502;9.194;2024-01-15T03:25:12;16.48;;;7.40;;
4244;SDS011;2136;48.502;9.194;2024-01-15T03:27:39;20.08;;;8.60;;
4244;SDS011;2136;48.502;9.194;2024-01-15T03:30:06;19.17;;;8.27;;
4244;SDS011;2136;48.502;9.194;2024-01-15T03:32:35;20.20;;;9.15;;
4244;SDS011;2136;48.502;9.194;2024-01-15T03:35:02;19.88;;;8.65;;
4244;SDS011;2136;48.502;9.194;2024-01-15T03:37:29;21.48;;;9.85;;
4244;SDS011;2136;48.502;9.194;2024-01-15T03:39:55;18.13;;;8.52;;
4244;SDS011;2136;48.502;9.194;2024-01-15T03:42:22;20.10;;;8.55;;
4244;SDS011;2136;48.502;9.194;2024-01-15T03:44:49;23.33;;;8.32;;
4244;SDS011;2136;48.502;9.194;2024-01-15T03:47:16;25.38;;;9.65;;
4244;SDS011;2136;48.502;9.194;2024-01-15T03:49:44;17.95;;;8.00;;
4244;SDS011;2136;48.502;9.194;2024-01-15T03:52:11;23.45;;;8.32;;
4244;SDS011;2136;48.502;9.194;2024-01-15T03:54:38;27.52;;;9.45;;
4244;SDS011;2136;48.502;9.194;2024-01-15T03:57:04;21.58;;;9.07;;
4244;SDS011;2136;48.502;9.194;2024-01-15T03:59:31;19.92;;;8.10;;
4244;SDS011;2136;48.502;9.194;2024-01-15T04:01:58;21.10;;;8.85;;
4244;SDS011;2136;48.502;9.194;2024-01-15T04:04:25;24.83;;;8.75;;
4244;SDS011;2136;48.502;9.194;2024-01-15T04:06:53;20.15;;;9.35;;
4244;SDS011;2136;48.502;9.194;2024-01-15T04:09:20;23.52;;;11.98;;
4244;SDS011;2136;48.502;9.194;2024-01-15T04:11:47;24.63;;;8.30;;
4244;SDS011;2136;48.502;9.194;2024-01-15T04:14:14;22.70;;;9.13;;
4244;SDS011;2136;48.502;9.194;2024-01-15T04:16:41;20.75;;;8.77;;
4244;SDS011;2136;48.502;9.194;2024-01-15T04:19:08;23.52;;;9.10;;
4244;SDS011;2136;48.502;9.194;2024-01-15T04:21:35;21.40;;;8.98;;
4244;SDS011;2136;48.502;9.194;2024-01-15T04:24:03;17.50;;;8.93;;
4244;SDS011;2136;48.502;9.194;2024-01-15T04:26:30;19.90;;;9.80;;
4244;SDS011;2136;48.502;9.194;2024-01-15T04:28:57;27.10;;;9.50;;
4244;SDS011;2136;48.502;9.194;2024-01-15T04:31:25;22.33;;;9.88;;
4244;SDS011;2136;48.502;9.194;2024-01-15T04:33:52;19.60;;;9.70;;
4244;SDS011;2136;48.502;9.194;2024-01-15T04:36:18;17.23;;;9.30;;
4244;SDS011;2136;48.502;9.194;2024-01-15T04:38:45;20.15;;;9.35;;
4244;SDS011;2136;48.502;9.194;2024-01-15T04:41:13;24.10;;;9.88;;
4244;SDS011;2136;48.502;9.194;2024-01-15T04:43:41;28.70;;;10.20;;
4244;SDS011;2136;48.502;9.194;2024-01-15T04:46:08;21.35;;;8.82;;
4244;SDS011;2136;48.502;9.194;2024-01-15T04:48:36;24.23;;;9.38;;
4244;SDS011;2136;48.502;9.194;2024-01-15T04:51:04;22.33;;;10.23;;
4244;SDS011;2136;48.502;9.194;2024-01-15T04:53:31;20.23;;;9.00;;
4244;SDS011;2136;48.502;9.194;2024-01-15T04:55:58;21.10;;;10.30;;
4244;SDS011;2136;48.502;9.194;2024-01-15T04:58:26;32.53;;;11.20;;
4244;SDS011;2136;48.502;9.194;2024-01-15T05:00:53;25.90;;;10.55;;
4244;SDS011;2136;48.502;9.194;2024-01-15T05:03:20;26.50;;;9.80;;
4244;SDS011;2136;48.502;9.194;2024-01-15T05:05:47;27.40;;;11.23;;
4244;SDS011;2136;48.502;9.194;2024-01-15T05:08:13;25.57;;;10.97;;
4244;SDS011;2136;48.502;9.194;2024-01-15T05:10:40;24.05;;;10.60;;
4244;SDS011;2136;48.502;9.194;2024-01-15T05:13:07;26.73;;;10.82;;
4244;SDS011;2136;48.502;9.194;2024-01-15T05:15:35;30.75;;;11.32;;
4244;SDS011;2136;48.502;9.194;2024-01-15T05:18:02;28.58;;;11.10;;
4244;SDS011;2136;48.502;9.194;2024-01-15T05:20:29;21.08;;;9.52;;
4244;SDS011;2136;48.502;9.194;2024-01-15T05:22:56;19.02;;;9.73;;
4244;SDS011;2136;48.502;9.194;2024-01-15T05:25:22;20.38;;;8.50;;
4244;SDS011;2136;48.502;9.194;2024-01-15T05:27:50;22.15;;;10.48;;
4244;SDS011;2136;48.502;9.194;2024-01-15T05:30:16;21.70;;;9.15;;
4244;SDS011;2136;48.502;9.194;2024-01-15T05:32:45;23.13;;;10.50;;
4244;SDS011;2136;48.502;9.194;2024-01-15T05:35:11;23.98;;;10.20;;
4244;SDS011;2136;48.502;9.194;2024-01-15T05:37:41;15.60;;;8.67;;
4244;SDS011;2136;48.502;9.194;2024-01-15T05:40:10;16.35;;;8.80;;
4244;SDS011;2136;48.502;9.194;2024-01-15T05:42:37;16.52;;;8.18;;
4244;SDS011;2136;48.502;9.194;2024-01-15T05:45:05;17.35;;;8.05;;
4244;SDS011;2136;48.502;9.194;2024-01-15T05:47:32;21.33;;;9.20;;
4244;SDS011;2136;48.502;9.194;2024-01-15T05:50:00;17.35;;;9.00;;
4244;SDS011;2136;48.502;9.194;2024-01-15T05:52:27;24.48;;;8.95;;
4244;SDS011;2136;48.502;9.194;2024-01-15T05:54:54;15.52;;;7.68;;
4244;SDS011;2136;48.502;9.194;2024-01-15T05:57:21;19.97;;;9.10;;
4244;SDS011;2136;48.502;9.194;2024-01-15T05:59:48;22.00;;;9.82;;
4244;SDS011;2136;48.502;9.194;2024-01-15T06:02:15;20.83;;;10.48;;
4244;SDS011;2136;48.502;9.194;2024-01-15T06:04:42;19.90;;;10.13;;
4244;SDS011;2136;48.502;9.194;2024-01-15T06:07:10;19.60;;;9.30;;
4244;SDS011;2136;48.502;9.194;2024-01-15T06:09:37;23.02;;;10.18;;
4244;SDS011;2136;48.502;9.194;2024-01-15T06:12:04;21.35;;;9.18;;
4244;SDS011;2136;48.502;9.194;2024-01-15T06:14:33;19.35;;;9.45;;
4244;SDS011;2136;48.502;9.194;2024-01-15T06:16:59;22.38;;;10.90;;
4244;SDS011;2136;48.502;9.194;2024-01-15T06:19:26;20.27;;;10.40;;
4244;SDS011;2136;48.502;9.194;2024-01-15T06:21:53;26.08;;;11.05;;
4244;SDS011;2136;48.502;9.194;2024-01-15T06:24:21;18.40;;;8.90;;
4244;SDS011;2136;48.502;9.194;2024-01-15T06:26:48;21.25;;;10.18;;
4244;SDS011;2136;48.502;9.194;2024-01-15T06:29:15;25.50;;;10.60;;
4244;SDS011;2136;48.502;9.194;2024-01-15T06:31:41;22.63;;;10.63;;
4244;SDS011;2136;48.502;9.194;2024-01-15T06:34:08;20.30;;;9.80;;
4244;SDS011;2136;48.502;9.194;2024-01-15T06:36:35;22.55;;;11.05;;
4244;SDS011;2136;48.502;9.194;2024-01-15T06:39:02;27.80;;;10.95;;
4244;SDS011;2136;48.502;9.194;2024-01-15T06:41:30;19.20;;;10.75;;
4244;SDS011;2136;48.502;9.194;2024-01-15T06:43:57;20.40;;;10.13;;
4244;SDS011;2136;48.502;9.194;2024-01-15T06:46:24;23.65;;;10.35;;
4244;SDS011;2136;48.502;9.194;2024-01-15T06:48:51;21.60;;;10.93;;
4244;SDS011;2136;48.502;9.194;2024-01-15T06:51:17;18.30;;;9.32;;
4244;SDS011;2136;48.502;9.194;2024-01-15T06:53:44;16.50;;;9.55;;
4244;SDS011;2136;48.502;9.194;2024-01-15T06:56:11;20.88;;;10.90;;
4244;SDS011;2136;48.502;9.194;2024-01-15T06:58:39;22.48;;;10.18;;
4244;SDS011;2136;48.502;9.194;2024-01-15T07:01:06;18.77;;;8.90;;
4244;SDS011;2136;48.502;9.194;2024-01-15T07:03:33;22.63;;;10.70;;
4244;SDS011;2136;48.502;9.194;2024-01-15T07:06:00;22.15;;;9.90;;
4244;SDS011;2136;48.502;9.194;2024-01-15T07:08:27;21.15;;;10.00;;
4244;SDS011;2136;48.502;9.194;2024-01-15T07:10:53;16.60;;;8.73;;
4244;SDS011;2136;48.502;9.194;2024-01-15T07:13:20;20.55;;;9.63;;
4244;SDS011;2136;48.502;9.194;2024-01-15T07:15:48;21.13;;;9.57;;
4244;SDS011;2136;48.502;9.194;2024-01-15T07:18:15;16.70;;;8.13;;
4244;SDS011;2136;48.502;9.194;2024-01-15T07:20:42;14.82;;;7.65;;
4244;SDS011;2136;48.502;9.194;2024-01-15T07:23:09;19.52;;;10.18;;
4244;SDS011;2136;48.502;9.194;2024-01-15T07:25:37;17.15;;;8.25;;
4244;SDS011;2136;48.502;9.194;2024-01-15T07:28:04;16.77;;;9.13;;
4244;SDS011;2136;48.502;9.194;2024-01-15T07:30:31;14.18;;;7.93;;
4244;SDS011;2136;48.502;9.194;2024-01-15T07:32:59;20.17;;;8.30;;
4244;SDS011;2136;48.502;9.194;2024-01-15T07:35:26;15.18;;;6.85;;
4244;SDS011;2136;48.502;9.194;2024-01-15T07:37:53;17.00;;;8.10;;
4244;SDS011;2136;48.502;9.194;2024-01-15T07:40:19;22.77;;;8.10;;
4244;SDS011;2136;48.502;9.194;2024-01-15T07:42:46;19.07;;;7.53;;
4244;SDS011;2136;48.502;9.194;2024-01-15T07:45:13;14.60;;;7.03;;
4244;SDS011;2136;48.502;9.194;2024-01-15T07:47:40;22.57;;;9.20;;
4244;SDS011;2136;48.502;9.194;2024-01-15T07:50:08;17.00;;;8.68;;
4244;SDS011;2136;48.502;9.194;2024-01-15T07:52:35;14.60;;;7.15;;
4244;SDS011;2136;48.502;9.194;2024-01-15T07:55:02;15.10;;;8.07;;
4244;SDS011;2136;48.502;9.194;2024-01-15T07:57:30;16.07;;;6.90;;
4244;SDS011;2136;48.502;9.194;2024-01-15T07:59:57;14.95;;;7.82;;
4244;SDS011;2136;48.502;9.194;2024-01-15T08:02:24;19.10;;;7.10;;
4244;SDS011;2136;48.502;9.194;2024-01-15T08:04:50;11.60;;;6.30;;
4244;SDS011;2136;48.502;9.194;2024-01-15T08:07:19;11.13;;;6.17;;
4244;SDS011;2136;48.502;9.194;2024-01-15T08:09:45;17.67;;;7.93;;
4244;SDS011;2136;48.502;9.194;2024-01-15T08:12:14;15.38;;;7.05;;
4244;SDS011;2136;48.502;9.194;2024-01-15T08:14:40;17.43;;;7.83;;
4244;SDS011;2136;48.502;9.194;2024-01-15T08:17:07;15.77;;;6.10;;
4244;SDS011;2136;48.502;9.194;2024-01-15T08:19:34;11.87;;;6.03;;
4244;SDS011;2136;48.502;9.194;2024-01-15T08:22:01;13.13;;;7.07;;
4244;SDS011;2136;48.502;9.194;2024-01-15T08:24:29;14.63;;;7.47;;
4244;SDS011;2136;48.502;9.194;2024-01-15T08:26:56;16.13;;;6.85;;
4244;SDS011;2136;48.502;9.194;2024-01-15T08:29:23;12.30;;;6.17;;
4244;SDS011;2136;48.502;9.194;2024-01-15T08:31:50;9.47;;;5.80;;
4244;SDS011;2136;48.502;9.194;2024-01-15T08:34:17;10.10;;;5.87;;
4244;SDS011;2136;48.502;9.194;2024-01-15T08:36:44;10.53;;;5.43;;
4244;SDS011;2136;48.502;9.194;2024-01-15T08:39:11;12.17;;;5.67;;
4244;SDS011;2136;48.502;9.194;2024-01-15T08:41:39;7.60;;;5.10;;
4244;SDS011;2136;48.502;9.194;2024-01-15T08:44:06;9.40;;;5.20;;
4244;SDS011;2136;48.502;9.194;2024-01-15T08:46:33;15.75;;;5.53;;
4244;SDS011;2136;48.502;9.194;2024-01-15T08:48:59;9.63;;;4.93;;
4244;SDS011;2136;48.502;9.194;2024-01-15T08:51:27;6.60;;;3.70;;
4244;SDS011;2136;48.502;9.194;2024-01-15T08:53:53;6.10;;;4.07;;
4244;SDS011;2136;48.502;9.194;2024-01-15T08:56:20;8.52;;;4.00;;
4244;SDS011;2136;48.502;9.194;2024-01-15T08:58:49;5.90;;;3.85;;
4244;SDS011;2136;48.502;9.194;2024-01-15T09:01:15;6.40;;;3.40;;
4244;SDS011;2136;48.502;9.194;2024-01-15T09:03:42;5.93;;;4.20;;
4244;SDS011;2136;48.502;9.194;2024-01-15T09:06:09;7.97;;;3.70;;
4244;SDS011;2136;48.502;9.194;2024-01-15T09:08:36;7.80;;;4.33;;
4244;SDS011;2136;48.502;9.194;2024-01-15T09:11:03;6.03;;;3.72;;
4244;SDS011;2136;48.502;9.194;2024-01-15T09:13:30;6.90;;;4.20;;
4244;SDS011;2136;48.502;9.194;2024-01-15T09:15:58;7.33;;;4.70;;
4244;SDS011;2136;48.502;9.194;2024-01-15T09:18:26;11.43;;;4.43;;
4244;SDS011;2136;48.502;9.194;2024-01-15T09:20:52;9.30;;;4.50;;
4244;SDS011;2136;48.502;9.194;2024-01-15T09:23:19;6.73;;;4.63;;
4244;SDS011;2136;48.502;9.194;2024-01-15T09:25:46;17.60;;;4.70;;
4244;SDS011;2136;48.502;9.194;2024-01-15T09:28:13;5.70;;;3.40;;
4244;SDS011;2136;48.502;9.194;2024-01-15T09:30:40;5.90;;;3.53;;
4244;SDS011;2136;48.502;9.194;2024-01-15T09:33:08;8.97;;;3.50;;
4244;SDS011;2136;48.502;9.194;2024-01-15T09:35:35;7.17;;;3.43;;
4244;SDS011;2136;48.502;9.194;2024-01-15T09:38:02;6.82;;;3.90;;
4244;SDS011;2136;48.502;9.194;2024-01-15T09:40:31;5.13;;;3.23;;
4244;SDS011;2136;48.502;9.194;2024-01-15T09:42:59;6.50;;;3.20;;
4244;SDS011;2136;48.502;9.194;2024-01-15T09:45:27;3.73;;;2.97;;
4244;SDS011;2136;48.502;9.194;2024-01-15T09:47:55;5.20;;;2.70;;
4244;SDS011;2136;48.502;9.194;2024-01-15T09:50:23;5.87;;;3.10;;
4244;SDS011;2136;48.502;9.194;2024-01-15T09:52:51;6.80;;;3.27;;
4244;SDS011;2136;48.502;9.194;2024-01-15T09:55:18;4.90;;;3.23;;
4244;SDS011;2136;48.502;9.194;2024-01-15T09:57:45;7.67;;;3.40;;
4244;SDS011;2136;48.502;9.194;2024-01-15T10:00:12;2.90;;;2.60;;
4244;SDS011;2136;48.502;9.194;2024-01-15T10:02:40;3.80;;;3.00;;
4244;SDS011;2136;48.502;9.194;2024-01-15T10:05:07;6.97;;;3.17;;
4244;SDS011;2136;48.502;9.194;2024-01-15T10:07:36;3.00;;;2.67;;
4244;SDS011;2136;48.502;9.194;2024-01-15T10:10:05;5.37;;;3.07;;
4244;SDS011;2136;48.502;9.194;2024-01-15T10:12:32;5.67;;;3.10;;
4244;SDS011;2136;48.502;9.194;2024-01-15T10:14:59;5.03;;;3.17;;
4244;SDS011;2136;48.502;9.194;2024-01-15T10:17:26;3.43;;;3.00;;
4244;SDS011;2136;48.502;9.194;2024-01-15T10:19:53;7.60;;;3.10;;
4244;SDS011;2136;48.502;9.194;2024-01-15T10:22:20;3.80;;;2.67;;
4244;SDS011;2136;48.502;9.194;2024-01-15T10:24:48;6.50;;;2.97;;
4244;SDS011;2136;48.502;9.194;2024-01-15T10:27:15;3.60;;;2.87;;
4244;SDS011;2136;48.502;9.194;2024-01-15T10:29:42;6.20;;;2.80;;
4244;SDS011;2136;48.502;9.194;2024-01-15T10:32:09;3.90;;;2.57;;
4244;SDS011;2136;48.502;9.194;2024-01-15T10:34:37;5.30;;;2.90;;
4244;SDS011;2136;48.502;9.194;2024-01-15T10:37:06;5.83;;;3.10;;
4244;SDS011;2136;48.502;9.194;2024-01-15T10:39:34;3.83;;;2.90;;
4244;SDS011;2136;48.502;9.194;2024-01-15T10:42:03;10.60;;;3.57;;
4244;SDS011;2136;48.502;9.194;2024-01-15T10:44:31;4.47;;;3.40;;
4244;SDS011;2136;48.502;9.194;2024-01-15T10:46:58;3.40;;;2.77;;
4244;SDS011;2136;48.502;9.194;2024-01-15T10:49:25;2.90;;;2.47;;
4244;SDS011;2136;48.502;9.194;2024-01-15T10:51:54;4.07;;;2.37;;
4244;SDS011;2136;48.502;9.194;2024-01-15T10:54:22;1.70;;;1.60;;
4244;SDS011;2136;48.502;9.194;2024-01-15T10:56:49;7.67;;;3.10;;
4244;SDS011;2136;48.502;9.194;2024-01-15T10:59:18;3.63;;;1.80;;
4244;SDS011;2136;48.502;9.194;2024-01-15T11:01:47;2.67;;;2.33;;
4244;SDS011;2136;48.502;9.194;2024-01-15T11:04:15;6.57;;;2.70;;
4244;SDS011;2136;48.502;9.194;2024-01-15T11:06:42;5.87;;;2.50;;
4244;SDS011;2136;48.502;9.194;2024-01-15T11:09:11;2.33;;;1.40;;
4244;SDS011;2136;48.502;9.194;2024-01-15T11:11:40;3.60;;;2.50;;
4244;SDS011;2136;48.502;9.194;2024-01-15T11:14:08;5.93;;;2.63;;
4244;SDS011;2136;48.502;9.194;2024-01-15T11:16:55;3.17;;;2.87;;
4244;SDS011;2136;48.502;9.194;2024-01-15T11:19:24;2.10;;;2.00;;
4244;SDS011;2136;48.502;9.194;2024-01-15T11:21:51;2.23;;;1.77;;
4244;SDS011;2136;48.502;9.194;2024-01-15T11:24:33;4.03;;;2.10;;
4244;SDS011;2136;48.502;9.194;2024-01-15T11:27:01;5.50;;;2.90;;
4244;SDS011;2136;48.502;9.194;2024-01-15T11:29:29;5.43;;;2.63;;
4244;SDS011;2136;48.502;9.194;2024-01-15T11:31:59;2.30;;;2.10;;
4244;SDS011;2136;48.502;9.194;2024-01-15T11:37:27;2.57;;;2.37;;
4244;SDS011;2136;48.502;9.194;2024-01-15T11:39:55;3.00;;;2.00;;
4244;SDS011;2136;48.502;9.194;2024-01-15T11:42:26;2.60;;;2.13;;
4244;SDS011;2136;48.502;9.194;2024-01-15T11:44:53;3.23;;;2.53;;
4244;SDS011;2136;48.502;9.194;2024-01-15T11:47:29;6.87;;;3.10;;
4244;SDS011;2136;48.502;9.194;2024-01-15T11:50:23;7.33;;;2.87;;
4244;SDS011;2136;48.502;9.194;2024-01-15T11:52:55;3.80;;;3.27;;
4244;SDS011;2136;48.502;9.194;2024-01-15T11:55:27;4.17;;;2.57;;
4244;SDS011;2136;48.502;9.194;2024-01-15T11:57:55;4.63;;;2.70;;
4244;SDS011;2136;48.502;9.194;2024-01-15T12:00:26;6.10;;;2.77;;
4244;SDS011;2136;48.502;9.194;2024-01-15T12:02:55;2.63;;;2.43;;
4244;SDS011;2136;48.502;9.194;2024-01-15T12:05:27;4.80;;;3.00;;
4244;SDS011;2136;48.502;9.194;2024-01-15T12:07:53;4.23;;;2.83;;
4244;SDS011;2136;48.502;9.194;2024-01-15T12:10:20;3.10;;;2.30;;
4244;SDS011;2136;48.502;9.194;2024-01-15T12:12:56;6.00;;;2.90;;
4244;SDS011;2136;48.502;9.194;2024-01-15T12:15:25;3.60;;;2.70;;
4244;SDS011;2136;48.502;9.194;2024-01-15T12:17:56;2.80;;;2.60;;
4244;SDS011;2136;48.502;9.194;2024-01-15T12:20:23;7.10;;;3.40;;
4244;SDS011;2136;48.502;9.194;2024-01-15T12:22:51;7.17;;;4.37;;
4244;SDS011;2136;48.502;9.194;2024-01-15T12:25:17;4.47;;;3.67;;
4244;SDS011;2136;48.502;9.194;2024-01-15T12:27:44;9.10;;;4.10;;
4244;SDS011;2136;48.502;9.194;2024-01-15T12:30:12;4.10;;;2.80;;
4244;SDS011;2136;48.502;9.194;2024-01-15T12:32:40;4.97;;;3.60;;
4244;SDS011;2136;48.502;9.194;2024-01-15T12:35:09;6.40;;;3.27;;
4244;SDS011;2136;48.502;9.194;2024-01-15T12:37:36;8.47;;;3.67;;
4244;SDS011;2136;48.502;9.194;2024-01-15T12:40:05;4.60;;;3.10;;
4244;SDS011;2136;48.502;9.194;2024-01-15T12:42:34;4.00;;;2.93;;
4244;SDS011;2136;48.502;9.194;2024-01-15T12:45:01;3.10;;;2.80;;
4244;SDS011;2136;48.502;9.194;2024-01-15T12:47:29;6.67;;;3.70;;
4244;SDS011;2136;48.502;9.194;2024-01-15T12:49:57;4.83;;;3.30;;
4244;SDS011;2136;48.502;9.194;2024-01-15T12:52:26;4.53;;;3.23;;
4244;SDS011;2136;48.502;9.194;2024-01-15T12:54:53;3.83;;;2.80;;
4244;SDS011;2136;48.502;9.194;2024-01-15T12:57:20;6.90;;;3.87;;
4244;SDS011;2136;48.502;9.194;2024-01-15T12:59:46;6.13;;;3.77;;
4244;SDS011;2136;48.502;9.194;2024-01-15T13:02:14;7.07;;;3.97;;
4244;SDS011;2136;48.502;9.194;2024-01-15T13:04:42;6.20;;;3.97;;
4244;SDS011;2136;48.502;9.194;2024-01-15T13:07:09;6.07;;;4.20;;
4244;SDS011;2136;48.502;9.194;2024-01-15T13:09:37;8.33;;;4.73;;
4244;SDS011;2136;48.502;9.194;2024-01-15T13:12:04;6.30;;;4.00;;
4244;SDS011;2136;48.502;9.194;2024-01-15T13:14:32;7.00;;;4.10;;
4244;SDS011;2136;48.502;9.194;2024-01-15T13:16:59;5.83;;;4.13;;
4244;SDS011;2136;48.502;9.194;2024-01-15T13:19:26;9.23;;;4.60;;
4244;SDS011;2136;48.502;9.194;2024-01-15T13:21:53;10.40;;;5.90;;
4244;SDS011;2136;48.502;9.194;2024-01-15T13:24:20;7.60;;;4.40;;
4244;SDS011;2136;48.502;9.194;2024-01-15T13:26:49;8.40;;;4.40;;
4244;SDS011;2136;48.502;9.194;2024-01-15T13:29:15;7.63;;;4.37;;
4244;SDS011;2136;48.502;9.194;2024-01-15T13:31:43;7.40;;;3.93;;
4244;SDS011;2136;48.502;9.194;2024-01-15T13:34:11;9.50;;;5.20;;
4244;SDS011;2136;48.502;9.194;2024-01-15T13:36:39;9.33;;;4.90;;
4244;SDS011;2136;48.502;9.194;2024-01-15T13:39:06;9.60;;;5.10;;
4244;SDS011;2136;48.502;9.194;2024-01-15T13:41:34;8.30;;;5.03;;
4244;SDS011;2136;48.502;9.194;2024-01-15T13:44:02;7.70;;;4.30;;
4244;SDS011;2136;48.502;9.194;2024-01-15T13:46:29;7.37;;;4.93;;
4244;SDS011;2136;48.502;9.194;2024-01-15T13:48:56;9.50;;;4.27;;
4244;SDS011;2136;48.502;9.194;2024-01-15T13:51:23;11.17;;;6.47;;
4244;SDS011;2136;48.502;9.194;2024-01-15T13:53:50;8.05;;;4.95;;
4244;SDS011;2136;48.502;9.194;2024-01-15T13:56:18;8.23;;;4.80;;
4244;SDS011;2136;48.502;9.194;2024-01-15T13:58:45;8.93;;;5.53;;
4244;SDS011;2136;48.502;9.194;2024-01-15T14:01:14;8.17;;;5.23;;
4244;SDS011;2136;48.502;9.194;2024-01-15T14:03:42;8.50;;;4.65;;
4244;SDS011;2136;48.502;9.194;2024-01-15T14:06:09;9.35;;;5.28;;
4244;SDS011;2136;48.502;9.194;2024-01-15T14:08:36;8.77;;;4.75;;
4244;SDS011;2136;48.502;9.194;2024-01-15T14:11:03;8.53;;;4.67;;
4244;SDS011;2136;48.502;9.194;2024-01-15T14:13:32;11.00;;;6.90;;
4244;SDS011;2136;48.502;9.194;2024-01-15T14:15:58;6.90;;;4.47;;
4244;SDS011;2136;48.502;9.194;2024-01-15T14:18:27;7.87;;;5.47;;
4244;SDS011;2136;48.502;9.194;2024-01-15T14:20:54;15.63;;;6.20;;
4244;SDS011;2136;48.502;9.194;2024-01-15T14:23:21;9.38;;;5.55;;
4244;SDS011;2136;48.502;9.194;2024-01-15T14:25:48;9.10;;;5.30;;
4244;SDS011;2136;48.502;9.194;2024-01-15T14:28:15;9.53;;;5.33;;
4244;SDS011;2136;48.502;9.194;2024-01-15T14:30:41;6.77;;;5.60;;
4244;SDS011;2136;48.502;9.194;2024-01-15T14:33:08;10.03;;;5.30;;
4244;SDS011;2136;48.502;9.194;2024-01-15T14:35:37;9.53;;;5.63;;
4244;SDS011;2136;48.502;9.194;2024-01-15T14:38:04;9.50;;;6.03;;
4244;SDS011;2136;48.502;9.194;2024-01-15T14:40:30;7.83;;;4.70;;
4244;SDS011;2136;48.502;9.194;2024-01-15T14:42:57;7.53;;;5.67;;
4244;SDS011;2136;48.502;9.194;2024-01-15T14:45:24;7.97;;;6.05;;
4244;SDS011;2136;48.502;9.194;2024-01-15T14:47:52;11.18;;;6.22;;
4244;SDS011;2136;48.502;9.194;2024-01-15T14:50:19;12.55;;;6.70;;
4244;SDS011;2136;48.502;9.194;2024-01-15T14:52:47;8.63;;;5.00;;
4244;SDS011;2136;48.502;9.194;2024-01-15T14:55:14;10.80;;;5.10;;
4244;SDS011;2136;48.502;9.194;2024-01-15T14:57:41;7.25;;;4.82;;
4244;SDS011;2136;48.502;9.194;2024-01-15T15:00:08;8.80;;;6.00;;
4244;SDS011;2136;48.502;9.194;2024-01-15T15:02:35;10.38;;;5.78;;
4244;SDS011;2136;48.502;9.194;2024-01-15T15:05:03;9.27;;;5.83;;
4244;SDS011;2136;48.502;9.194;2024-01-15T15:07:30;10.60;;;5.83;;